Time;durP1;ratioP1;P1;durP2;ratioP2;P2;SDS_P1;SDS_P2;PMS_P1;PMS_P2;Temp;Humidity;BMP_temperature;BMP_pressure;BME280_temperature;BME280_humidity;BME280_pressure;Samples;Min_cycle;Max_cycle;Signal;HPM_P1;HPM_P2
2023/11/23 00:01:47;;;;;;;12.00;9.60;;;1.70;99.90;;;;;;5055439;28;20226;-63
2023/11/23 00:04:13;;;;;;;12.70;8.50;;;1.70;99.90;;;;;;5055961;28;20951;-65
2023/11/23 00:06:38;;;;;;;13.23;7.73;;;1.80;99.90;;;;;;5057831;28;20506;-64
2023/11/23 00:09:06;;;;;;;15.80;9.40;;;1.80;99.90;;;;;;5058554;28;20162;-64
2023/11/23 00:11:31;;;;;;;8.13;7.33;;;1.80;99.90;;;;;;5055844;28;20171;-65
2023/11/23 00:13:57;;;;;;;9.03;7.97;;;1.80;99.90;;;;;;5055705;28;20433;-64
2023/11/23 00:16:22;;;;;;;8.63;7.73;;;1.80;99.90;;;;;;5055804;28;20583;-63
2023/11/23 00:18:48;;;;;;;11.20;7.63;;;1.80;99.90;;;;;;5059090;28;20182;-64
2023/11/23 00:21:14;;;;;;;8.60;7.70;;;1.80;99.90;;;;;;5057899;28;20170;-64
2023/11/23 00:23:41;;;;;;;9.50;7.63;;;1.90;99.90;;;;;;5054402;28;20193;-64
2023/11/23 00:26:06;;;;;;;10.20;8.40;;;1.80;99.90;;;;;;5054661;28;20304;-64
2023/11/23 00:28:32;;;;;;;9.00;7.07;;;1.90;99.90;;;;;;5052085;28;20938;-64
2023/11/23 00:30:58;;;;;;;9.00;7.97;;;1.90;99.90;;;;;;5058780;28;20265;-65
2023/11/23 00:33:23;;;;;;;11.53;8.20;;;1.90;99.90;;;;;;5059636;28;20236;-64
2023/11/23 00:35:49;;;;;;;10.80;7.63;;;2.00;99.90;;;;;;5059797;28;20814;-64
2023/11/23 00:38:18;;;;;;;8.70;7.60;;;2.00;99.90;;;;;;5057965;28;20201;-64
2023/11/23 00:40:44;;;;;;;14.63;7.50;;;2.10;99.90;;;;;;5057746;28;20197;-64
2023/11/23 00:43:10;;;;;;;8.20;7.37;;;2.10;99.90;;;;;;5064066;28;21003;-64
2023/11/23 00:45:37;;;;;;;8.13;6.60;;;2.10;99.90;;;;;;5060361;28;20727;-64
2023/11/23 00:48:03;;;;;;;10.40;7.43;;;2.20;99.90;;;;;;5060051;28;20452;-64
2023/11/23 00:50:28;;;;;;;11.00;7.27;;;2.10;99.90;;;;;;5058000;28;20416;-64
2023/11/23 00:52:54;;;;;;;10.17;7.80;;;2.10;99.90;;;;;;5063281;28;20432;-64
2023/11/23 00:55:20;;;;;;;9.37;5.80;;;2.10;99.90;;;;;;5056022;28;20229;-64
2023/11/23 00:57:46;;;;;;;10.77;7.67;;;2.20;99.90;;;;;;5057873;28;20596;-64
2023/11/23 01:00:16;;;;;;;7.40;6.30;;;2.20;99.90;;;;;;5059509;28;20421;-64
2023/11/23 01:02:43;;;;;;;9.67;7.43;;;2.20;99.90;;;;;;5065145;28;20556;-64
2023/11/23 01:05:11;;;;;;;10.67;7.07;;;2.30;99.90;;;;;;5061296;28;20452;-64
2023/11/23 01:07:38;;;;;;;8.77;6.90;;;2.20;99.90;;;;;;5059308;28;20798;-64
2023/11/23 01:10:07;;;;;;;10.20;6.13;;;2.30;99.90;;;;;;5057890;28;20418;-64
2023/11/23 01:12:33;;;;;;;10.23;7.03;;;2.30;99.90;;;;;;5065165;28;20420;-64
2023/11/23 01:14:59;;;;;;;11.43;6.43;;;2.30;99.90;;;;;;5055229;28;20506;-64
2023/11/23 01:17:25;;;;;;;12.83;6.73;;;2.40;99.90;;;;;;5058869;28;20472;-64
2023/11/23 01:19:50;;;;;;;6.13;5.53;;;2.40;99.90;;;;;;5055093;28;20206;-64
2023/11/23 01:22:16;;;;;;;6.80;5.33;;;2.40;99.90;;;;;;5054962;28;20653;-64
2023/11/23 01:24:43;;;;;;;8.70;6.60;;;2.50;99.90;;;;;;5059783;28;20555;-65
2023/11/23 01:27:08;;;;;;;6.47;4.97;;;2.50;99.90;;;;;;5061933;28;20483;-64
2023/11/23 01:29:34;;;;;;;6.93;5.80;;;2.50;99.90;;;;;;5058324;28;21816;-65
2023/11/23 01:32:00;;;;;;;7.17;5.70;;;2.60;99.90;;;;;;5052012;28;20175;-65
2023/11/23 01:34:26;;;;;;;7.27;6.37;;;2.60;99.90;;;;;;5047258;28;20437;-65
2023/11/23 01:36:52;;;;;;;6.93;5.27;;;2.60;99.90;;;;;;5045377;28;20191;-64
2023/11/23 01:39:18;;;;;;;7.23;5.83;;;2.70;99.90;;;;;;5054959;28;20432;-64
2023/11/23 01:41:44;;;;;;;5.67;5.03;;;2.70;99.90;;;;;;5059011;28;20692;-64
2023/11/23 01:44:11;;;;;;;6.43;4.90;;;2.80;99.90;;;;;;5048065;28;20441;-64
2023/11/23 01:46:37;;;;;;;8.10;5.27;;;2.80;99.90;;;;;;5059032;28;20256;-66
2023/11/23 01:49:05;;;;;;;10.70;4.97;;;2.90;99.90;;;;;;5048846;28;20425;-65
2023/11/23 01:51:31;;;;;;;6.17;4.90;;;2.90;99.90;;;;;;5058055;28;20185;-64
2023/11/23 01:53:57;;;;;;;4.73;4.00;;;2.90;99.90;;;;;;5049926;28;20784;-64
2023/11/23 01:56:25;;;;;;;7.50;5.40;;;3.00;99.90;;;;;;5051469;28;20532;-65
2023/11/23 01:58:52;;;;;;;5.13;3.73;;;3.00;99.90;;;;;;5051762;28;20429;-64
2023/11/23 02:01:18;;;;;;;8.07;4.37;;;3.10;99.90;;;;;;5050470;28;20428;-65
2023/11/23 02:03:45;;;;;;;5.67;4.37;;;3.10;99.90;;;;;;5050486;28;20465;-65
2023/11/23 02:06:12;;;;;;;5.90;4.23;;;3.10;99.90;;;;;;5053147;28;20914;-64
2023/11/23 02:08:39;;;;;;;4.73;4.03;;;3.20;99.90;;;;;;5049522;28;20967;-64
2023/11/23 02:11:05;;;;;;;5.77;4.43;;;3.20;99.90;;;;;;5050831;28;20438;-65
2023/11/23 02:13:33;;;;;;;7.73;4.40;;;3.20;99.90;;;;;;5055341;28;20498;-65
2023/11/23 02:15:59;;;;;;;4.63;3.53;;;3.20;99.90;;;;;;5049828;28;20425;-64
2023/11/23 02:18:25;;;;;;;4.07;3.67;;;3.30;99.90;;;;;;5052451;28;20500;-65
2023/11/23 02:20:51;;;;;;;5.60;4.30;;;3.30;99.90;;;;;;5052741;28;20417;-64
2023/11/23 02:23:17;;;;;;;4.63;4.13;;;3.30;99.90;;;;;;5052362;28;20441;-64
2023/11/23 02:25:42;;;;;;;5.90;3.80;;;3.40;99.90;;;;;;5047922;28;20849;-64
2023/11/23 02:28:08;;;;;;;7.80;4.17;;;3.40;99.90;;;;;;5059705;28;20222;-65
2023/11/23 02:30:34;;;;;;;3.67;3.30;;;3.40;99.90;;;;;;5044274;28;20179;-64
2023/11/23 02:33:01;;;;;;;7.33;3.47;;;3.50;99.90;;;;;;5052834;28;20484;-64
2023/11/23 02:35:27;;;;;;;4.70;3.70;;;3.50;99.90;;;;;;5053139;28;20401;-66
2023/11/23 02:37:53;;;;;;;5.13;4.63;;;3.60;99.90;;;;;;5060885;28;20925;-64
2023/11/23 02:40:19;;;;;;;5.20;3.37;;;3.60;99.90;;;;;;5052510;28;20475;-64
2023/11/23 02:42:45;;;;;;;4.00;3.17;;;3.70;99.90;;;;;;5052646;28;20553;-64
2023/11/23 02:45:11;;;;;;;4.27;3.87;;;3.80;99.90;;;;;;5051941;28;20418;-64
2023/11/23 02:47:36;;;;;;;6.27;4.10;;;3.90;99.90;;;;;;5053740;28;20198;-64
2023/11/23 02:50:04;;;;;;;7.00;3.30;;;3.90;99.90;;;;;;5051219;28;20413;-64
2023/11/23 02:52:30;;;;;;;4.00;3.20;;;4.00;99.90;;;;;;5045724;28;20603;-65
2023/11/23 02:54:56;;;;;;;3.63;3.17;;;4.00;99.90;;;;;;5051966;28;20406;-64
2023/11/23 02:57:22;;;;;;;3.63;3.33;;;4.00;99.90;;;;;;5051889;28;20946;-64
2023/11/23 02:59:50;;;;;;;3.53;3.20;;;4.00;99.90;;;;;;5052389;28;20330;-65
2023/11/23 03:02:16;;;;;;;5.23;3.17;;;4.00;99.90;;;;;;5051508;28;20697;-65
2023/11/23 03:04:42;;;;;;;4.20;2.90;;;4.10;99.90;;;;;;5054327;28;20440;-65
2023/11/23 03:07:08;;;;;;;6.57;3.77;;;4.10;99.90;;;;;;5058520;28;20565;-64
2023/11/23 03:09:34;;;;;;;3.90;3.50;;;4.10;99.90;;;;;;5051761;28;20171;-64
2023/11/23 03:12:00;;;;;;;3.70;3.00;;;4.20;99.90;;;;;;5058223;28;20427;-64
2023/11/23 03:14:26;;;;;;;5.80;3.70;;;4.20;99.90;;;;;;5052967;28;20225;-64
2023/11/23 03:16:52;;;;;;;3.57;3.23;;;4.30;99.90;;;;;;5048884;28;20193;-65
2023/11/23 03:19:17;;;;;;;5.67;3.80;;;4.30;99.90;;;;;;5050904;28;20289;-64
2023/11/23 03:21:43;;;;;;;4.23;3.07;;;4.30;99.90;;;;;;5051491;28;20735;-65
2023/11/23 03:24:09;;;;;;;5.80;4.00;;;4.40;99.90;;;;;;5051337;28;20244;-65
2023/11/23 03:26:36;;;;;;;4.90;3.87;;;4.40;99.90;;;;;;5051016;28;20278;-64
2023/11/23 03:29:02;;;;;;;3.67;3.10;;;4.40;99.90;;;;;;5051264;28;20175;-64
2023/11/23 03:31:28;;;;;;;6.60;3.40;;;4.50;99.90;;;;;;5051360;28;20524;-65
2023/11/23 03:33:54;;;;;;;6.30;4.23;;;4.50;99.90;;;;;;5049428;28;20990;-64
2023/11/23 03:36:20;;;;;;;5.63;3.50;;;4.50;99.90;;;;;;5048295;28;20190;-65
2023/11/23 03:38:45;;;;;;;3.87;3.00;;;4.60;99.90;;;;;;5059606;28;20190;-64
2023/11/23 03:41:11;;;;;;;4.50;3.70;;;4.60;99.90;;;;;;5051271;28;20440;-64
2023/11/23 03:43:36;;;;;;;6.03;3.80;;;4.60;99.90;;;;;;5057921;28;20182;-64
2023/11/23 03:46:02;;;;;;;5.33;4.03;;;4.60;99.90;;;;;;5056015;28;20186;-64
2023/11/23 03:48:28;;;;;;;4.43;3.80;;;4.70;99.90;;;;;;5051886;28;20309;-65
2023/11/23 03:50:53;;;;;;;5.23;3.50;;;4.70;99.90;;;;;;5061033;28;20178;-64
2023/11/23 03:53:19;;;;;;;3.80;3.43;;;4.90;99.90;;;;;;5048771;28;20244;-65
2023/11/23 03:55:45;;;;;;;5.60;3.80;;;4.90;99.90;;;;;;5052794;28;20175;-64
2023/11/23 03:58:11;;;;;;;3.87;3.20;;;4.90;99.90;;;;;;5058088;28;20522;-65
2023/11/23 04:00:36;;;;;;;4.10;3.30;;;4.90;99.90;;;;;;5054411;28;20522;-65
2023/11/23 04:03:03;;;;;;;4.37;2.83;;;4.90;99.90;;;;;;5053645;28;20232;-65
2023/11/23 04:05:28;;;;;;;3.50;3.10;;;4.90;99.90;;;;;;5050310;28;20187;-65
2023/11/23 04:07:54;;;;;;;4.60;3.33;;;4.90;99.90;;;;;;5054327;28;20456;-64
2023/11/23 04:10:19;;;;;;;4.50;3.33;;;4.90;99.90;;;;;;5053557;28;20581;-64
2023/11/23 04:12:45;;;;;;;3.30;2.97;;;5.00;99.90;;;;;;5063283;28;20214;-65
2023/11/23 04:15:12;;;;;;;5.20;4.10;;;5.00;99.90;;;;;;5065062;28;20174;-64
2023/11/23 04:17:38;;;;;;;4.80;3.60;;;5.10;99.90;;;;;;5051766;28;20178;-65
2023/11/23 04:20:05;;;;;;;5.17;3.37;;;5.20;99.90;;;;;;5051413;28;20920;-65
2023/11/23 04:22:30;;;;;;;5.23;3.83;;;5.20;99.90;;;;;;5051566;28;20429;-65
2023/11/23 04:24:56;;;;;;;7.47;4.10;;;5.20;99.90;;;;;;5050367;28;20965;-65
2023/11/23 04:27:22;;;;;;;4.60;3.47;;;5.20;99.90;;;;;;5050409;28;20198;-65
2023/11/23 04:29:48;;;;;;;4.67;3.47;;;5.30;99.90;;;;;;5050721;28;20657;-64
2023/11/23 04:32:14;;;;;;;3.63;3.03;;;5.30;99.90;;;;;;5063823;28;20560;-65
2023/11/23 04:34:40;;;;;;;5.43;3.70;;;5.40;99.90;;;;;;5066300;28;20470;-65
2023/11/23 04:37:05;;;;;;;6.60;4.27;;;5.40;99.90;;;;;;5055864;28;20218;-65
2023/11/23 04:39:31;;;;;;;3.83;3.40;;;5.40;99.90;;;;;;5054555;28;20179;-65
2023/11/23 04:41:57;;;;;;;4.50;4.00;;;5.40;99.90;;;;;;5050562;28;20167;-65
2023/11/23 04:44:22;;;;;;;4.73;4.30;;;5.40;99.90;;;;;;5050705;28;20179;-63
2023/11/23 04:46:49;;;;;;;5.80;4.10;;;5.50;99.90;;;;;;5051021;28;20213;-64
2023/11/23 04:49:16;;;;;;;4.70;4.23;;;5.50;99.90;;;;;;5055454;28;20187;-64
2023/11/23 04:51:42;;;;;;;5.57;4.00;;;5.50;99.90;;;;;;5048976;28;20441;-63
2023/11/23 04:54:07;;;;;;;5.13;4.43;;;5.50;99.90;;;;;;5050441;28;20571;-66
2023/11/23 04:56:33;;;;;;;9.43;4.17;;;5.60;99.90;;;;;;5061154;28;20430;-65
2023/11/23 04:58:59;;;;;;;9.30;4.33;;;5.60;99.90;;;;;;5051708;28;20183;-63
2023/11/23 05:01:24;;;;;;;4.80;4.40;;;5.60;99.90;;;;;;5052249;28;20179;-63
2023/11/23 05:03:50;;;;;;;8.43;5.93;;;5.60;99.90;;;;;;5051759;28;20236;-64
2023/11/23 05:06:15;;;;;;;10.53;4.53;;;5.60;99.90;;;;;;5050501;28;20211;-64
2023/11/23 05:08:42;;;;;;;10.03;5.33;;;5.60;99.90;;;;;;5047591;28;20252;-64
2023/11/23 05:11:07;;;;;;;8.47;5.70;;;5.70;99.90;;;;;;5050294;28;20218;-65
2023/11/23 05:13:34;;;;;;;8.43;5.23;;;5.70;99.90;;;;;;5056197;28;20434;-64
2023/11/23 05:16:00;;;;;;;7.63;5.57;;;5.70;99.90;;;;;;5051885;28;20657;-65
2023/11/23 05:18:25;;;;;;;9.67;5.87;;;5.70;99.90;;;;;;5052943;28;20468;-64
2023/11/23 05:20:51;;;;;;;6.53;5.50;;;5.70;99.90;;;;;;5054948;28;20516;-65
2023/11/23 05:23:16;;;;;;;10.17;5.33;;;5.80;99.90;;;;;;5067043;28;20209;-65
2023/11/23 05:25:42;;;;;;;9.17;6.03;;;5.80;99.90;;;;;;5054151;28;20558;-65
2023/11/23 05:28:08;;;;;;;10.17;6.13;;;5.90;99.90;;;;;;5057866;28;20258;-65
2023/11/23 05:30:34;;;;;;;6.50;5.10;;;5.90;99.90;;;;;;5057165;28;20178;-65
2023/11/23 05:33:04;;;;;;;9.67;6.90;;;5.90;99.90;;;;;;5054090;28;20226;-65
2023/11/23 05:35:30;;;;;;;8.53;5.93;;;6.00;99.90;;;;;;5053014;28;20920;-64
2023/11/23 05:37:56;;;;;;;9.00;6.10;;;6.00;99.90;;;;;;5054678;28;20462;-64
2023/11/23 05:40:22;;;;;;;10.57;6.00;;;6.00;99.90;;;;;;5056361;28;20420;-64
2023/11/23 05:42:49;;;;;;;9.37;6.40;;;6.00;99.90;;;;;;5062334;28;20443;-64
2023/11/23 05:45:15;;;;;;;8.07;6.67;;;6.00;99.90;;;;;;5053306;28;20276;-64
2023/11/23 05:47:41;;;;;;;8.50;7.50;;;6.00;99.90;;;;;;5061356;28;20552;-64
2023/11/23 05:50:07;;;;;;;9.20;7.20;;;6.10;99.90;;;;;;5058559;28;20420;-64
2023/11/23 05:52:34;;;;;;;14.93;7.90;;;6.10;99.90;;;;;;5054805;28;20282;-63
2023/11/23 05:54:59;;;;;;;9.10;6.70;;;6.20;99.90;;;;;;5058298;28;20416;-63
2023/11/23 05:57:25;;;;;;;9.80;7.20;;;6.20;99.90;;;;;;5063956;28;20418;-63
2023/11/23 05:59:51;;;;;;;10.93;7.20;;;6.30;99.90;;;;;;5061843;28;20281;-64
2023/11/23 06:02:18;;;;;;;11.23;8.70;;;6.30;99.90;;;;;;5053150;28;20238;-64
2023/11/23 06:04:45;;;;;;;13.40;9.87;;;6.40;99.90;;;;;;5053034;28;20454;-64
2023/11/23 06:07:11;;;;;;;10.20;8.00;;;6.40;99.90;;;;;;5054317;28;20492;-64
2023/11/23 06:09:37;;;;;;;13.60;8.50;;;6.40;99.90;;;;;;5052854;28;20410;-64
2023/11/23 06:12:04;;;;;;;10.30;7.40;;;6.40;99.90;;;;;;5054100;28;20948;-64
2023/11/23 06:14:33;;;;;;;12.33;9.17;;;6.50;99.90;;;;;;5061816;28;20429;-64
2023/11/23 06:16:59;;;;;;;14.67;7.80;;;6.50;99.90;;;;;;5055875;28;20733;-64
2023/11/23 06:19:24;;;;;;;10.80;8.63;;;6.60;99.90;;;;;;5057119;28;20436;-64
2023/11/23 06:21:50;;;;;;;8.73;7.40;;;6.50;99.90;;;;;;5058190;28;20171;-64
2023/11/23 06:24:19;;;;;;;13.03;8.60;;;6.60;99.90;;;;;;5057400;28;20330;-64
2023/11/23 06:26:44;;;;;;;8.83;6.90;;;6.60;99.90;;;;;;5052905;28;20418;-64
2023/11/23 06:29:10;;;;;;;9.50;8.10;;;6.50;99.90;;;;;;5053064;28;20493;-64
2023/11/23 06:31:35;;;;;;;11.87;9.00;;;6.60;99.90;;;;;;5065853;28;20242;-64
2023/11/23 06:34:01;;;;;;;9.93;8.77;;;6.60;99.90;;;;;;5052369;28;20193;-64
2023/11/23 06:36:27;;;;;;;10.70;9.37;;;6.60;99.90;;;;;;5055469;28;20171;-65
2023/11/23 06:38:52;;;;;;;14.33;8.97;;;6.60;99.90;;;;;;5052374;28;20175;-64
2023/11/23 06:41:22;;;;;;;11.10;8.43;;;6.70;99.90;;;;;;5052541;28;20179;-64
2023/11/23 06:43:48;;;;;;;9.87;8.87;;;6.70;99.90;;;;;;5053497;28;20191;-65
2023/11/23 06:46:15;;;;;;;9.73;8.60;;;6.70;99.90;;;;;;5054540;28;20425;-64
2023/11/23 06:48:41;;;;;;;8.83;7.70;;;6.70;99.90;;;;;;5053425;28;20559;-64
2023/11/23 06:51:08;;;;;;;9.70;8.03;;;6.70;99.90;;;;;;5055069;28;20525;-64
2023/11/23 06:53:35;;;;;;;12.30;8.00;;;6.70;99.90;;;;;;5053098;28;20191;-65
2023/11/23 06:56:02;;;;;;;12.37;9.07;;;6.70;99.90;;;;;;5053036;28;20409;-64
2023/11/23 06:58:28;;;;;;;11.43;8.67;;;6.70;99.90;;;;;;5052355;28;20430;-64
2023/11/23 07:00:54;;;;;;;13.70;9.73;;;6.60;99.90;;;;;;5055467;28;20578;-64
2023/11/23 07:03:22;;;;;;;11.93;7.93;;;6.60;99.90;;;;;;5060796;28;20449;-64
2023/11/23 07:05:48;;;;;;;11.30;10.10;;;6.60;99.90;;;;;;5050714;28;20189;-64
2023/11/23 07:08:14;;;;;;;11.57;9.30;;;6.70;99.90;;;;;;5055203;28;20805;-64
2023/11/23 07:10:41;;;;;;;10.90;9.77;;;6.70;99.90;;;;;;5051978;28;20175;-64
2023/11/23 07:13:07;;;;;;;14.90;9.53;;;6.70;99.90;;;;;;5051725;28;20481;-64
2023/11/23 07:15:33;;;;;;;13.53;11.03;;;6.70;99.90;;;;;;5064025;28;20418;-64
2023/11/23 07:17:59;;;;;;;17.80;9.83;;;6.70;99.90;;;;;;5058660;28;20414;-64
2023/11/23 07:20:25;;;;;;;11.53;9.40;;;6.70;99.90;;;;;;5056286;28;20175;-63
2023/11/23 07:22:52;;;;;;;13.83;10.30;;;6.70;99.90;;;;;;5062117;28;20939;-63
2023/11/23 07:25:18;;;;;;;11.43;9.67;;;6.70;99.90;;;;;;5058053;28;20422;-64
2023/11/23 07:27:43;;;;;;;10.63;9.57;;;6.80;99.90;;;;;;5057301;28;20539;-63
2023/11/23 07:30:10;;;;;;;11.83;9.27;;;6.80;99.90;;;;;;5054621;28;20484;-63
2023/11/23 07:32:36;;;;;;;12.27;10.03;;;6.80;99.90;;;;;;5058127;28;20282;-64
2023/11/23 07:35:03;;;;;;;14.10;10.83;;;6.80;99.90;;;;;;5046250;28;20485;-64
2023/11/23 07:37:29;;;;;;;14.27;11.90;;;6.80;99.90;;;;;;5053369;28;20910;-64
2023/11/23 07:39:56;;;;;;;13.77;8.80;;;6.90;99.90;;;;;;5054593;28;20452;-63
2023/11/23 07:42:22;;;;;;;16.70;8.73;;;6.90;99.90;;;;;;5048891;28;20453;-64
2023/11/23 07:44:48;;;;;;;15.40;9.80;;;6.90;99.90;;;;;;5047521;28;20435;-64
2023/11/23 07:47:15;;;;;;;12.50;9.07;;;7.00;99.90;;;;;;5052632;28;20971;-64
2023/11/23 07:49:42;;;;;;;13.57;8.80;;;7.00;99.90;;;;;;5052707;28;20175;-64
2023/11/23 07:52:08;;;;;;;10.20;9.20;;;7.00;99.90;;;;;;5052403;28;20510;-64
2023/11/23 07:54:34;;;;;;;10.40;7.83;;;7.00;99.90;;;;;;5057661;28;20950;-64
2023/11/23 07:56:59;;;;;;;18.93;8.80;;;7.10;99.90;;;;;;5054781;28;20194;-63
2023/11/23 07:59:25;;;;;;;13.03;9.00;;;7.10;99.90;;;;;;5054576;28;20643;-64
2023/11/23 08:01:54;;;;;;;14.20;10.50;;;7.10;99.90;;;;;;5049030;28;20192;-66
2023/11/23 08:04:19;;;;;;;9.27;7.77;;;7.10;99.90;;;;;;5053096;28;20562;-63
2023/11/23 08:06:45;;;;;;;10.20;8.80;;;7.10;99.90;;;;;;5052640;28;20497;-64
2023/11/23 08:09:15;;;;;;;12.07;8.90;;;7.20;99.90;;;;;;5053179;28;20185;-66
2023/11/23 08:11:41;;;;;;;11.43;8.73;;;7.20;99.90;;;;;;5049114;28;20611;-65
2023/11/23 08:14:06;;;;;;;10.57;9.47;;;7.20;99.90;;;;;;5063550;28;20437;-65
2023/11/23 08:16:32;;;;;;;9.90;7.30;;;7.30;99.90;;;;;;5057540;28;20166;-65
2023/11/23 08:18:58;;;;;;;11.80;8.27;;;7.30;99.90;;;;;;5058831;28;20185;-64
2023/11/23 08:21:23;;;;;;;8.90;7.40;;;7.30;99.90;;;;;;5047344;28;20183;-65
2023/11/23 08:23:49;;;;;;;11.00;9.77;;;7.30;99.90;;;;;;5051613;28;20385;-64
2023/11/23 08:26:15;;;;;;;11.33;9.40;;;7.40;99.90;;;;;;5058471;28;20540;-64
2023/11/23 08:28:41;;;;;;;10.00;7.63;;;7.40;99.90;;;;;;5056526;28;20454;-63
2023/11/23 08:31:07;;;;;;;10.50;7.87;;;7.40;99.90;;;;;;5049392;28;20423;-66
2023/11/23 08:33:33;;;;;;;11.13;8.80;;;7.40;99.90;;;;;;5051243;28;20474;-68
2023/11/23 08:35:58;;;;;;;13.27;8.67;;;7.40;99.90;;;;;;5051209;28;20256;-65
2023/11/23 08:38:27;;;;;;;12.33;8.90;;;7.40;99.90;;;;;;5051037;28;20176;-65
2023/11/23 08:40:52;;;;;;;12.30;8.83;;;7.50;99.90;;;;;;5058611;28;20195;-65
2023/11/23 08:43:18;;;;;;;12.10;9.20;;;7.50;99.90;;;;;;5060991;28;20445;-64
2023/11/23 08:45:44;;;;;;;12.83;8.87;;;7.50;99.90;;;;;;5058882;28;20275;-65
2023/11/23 08:48:10;;;;;;;9.90;8.60;;;7.50;99.90;;;;;;5052789;28;20960;-64
2023/11/23 08:50:35;;;;;;;9.83;8.83;;;7.50;99.90;;;;;;5051444;28;20177;-65
2023/11/23 08:53:01;;;;;;;9.07;7.50;;;7.60;99.90;;;;;;5054339;28;20197;-64
2023/11/23 08:55:28;;;;;;;12.33;8.60;;;7.60;99.90;;;;;;5055874;28;20590;-65
2023/11/23 08:57:53;;;;;;;11.63;9.37;;;7.60;99.90;;;;;;5069424;28;20517;-64
2023/11/23 09:00:23;;;;;;;9.90;7.40;;;7.60;99.90;;;;;;5060395;28;20448;-65
2023/11/23 09:02:53;;;;;;;10.83;8.70;;;7.60;99.90;;;;;;5070099;28;20674;-64
2023/11/23 09:05:20;;;;;;;9.67;7.43;;;7.60;99.90;;;;;;5058850;28;20463;-69
2023/11/23 09:07:47;;;;;;;10.37;7.90;;;7.70;99.90;;;;;;5056717;28;20576;-66
2023/11/23 09:10:12;;;;;;;8.20;7.33;;;7.70;99.90;;;;;;5054372;28;20491;-66
2023/11/23 09:12:38;;;;;;;8.33;7.53;;;7.80;99.90;;;;;;5054107;28;20939;-65
2023/11/23 09:15:07;;;;;;;9.77;8.27;;;7.80;99.90;;;;;;5055656;28;20212;-65
2023/11/23 09:17:34;;;;;;;13.00;8.23;;;7.80;99.90;;;;;;5056695;28;20177;-63
2023/11/23 09:19:59;;;;;;;10.87;7.80;;;7.80;99.90;;;;;;5061587;28;20416;-65
2023/11/23 09:22:25;;;;;;;10.47;8.37;;;7.70;99.90;;;;;;5057484;28;20447;-64
2023/11/23 09:24:51;;;;;;;10.20;8.37;;;7.70;99.90;;;;;;5057340;28;20459;-63
2023/11/23 09:27:17;;;;;;;7.50;6.70;;;7.80;99.90;;;;;;5053863;28;20543;-63
2023/11/23 09:29:43;;;;;;;9.20;6.13;;;7.80;99.90;;;;;;5054393;28;20530;-63
2023/11/23 09:32:09;;;;;;;8.40;7.07;;;7.80;99.90;;;;;;5069278;28;20173;-66
2023/11/23 09:34:35;;;;;;;9.80;7.70;;;7.80;99.90;;;;;;5057013;28;20179;-66
2023/11/23 09:37:01;;;;;;;11.00;9.10;;;7.80;99.90;;;;;;5056015;28;20186;-65
2023/11/23 09:39:27;;;;;;;7.83;7.00;;;7.80;99.90;;;;;;5053491;28;20969;-68
2023/11/23 09:41:57;;;;;;;9.87;7.53;;;7.80;99.90;;;;;;5053564;28;20619;-64
2023/11/23 09:44:29;;;;;;;9.13;7.60;;;7.80;99.90;;;;;;5053689;28;20424;-64
2023/11/23 09:46:55;;;;;;;8.70;6.87;;;7.80;99.90;;;;;;5061735;28;20461;-64
2023/11/23 09:49:21;;;;;;;9.27;7.40;;;7.80;99.90;;;;;;5061722;28;20466;-64
2023/11/23 09:51:50;;;;;;;6.80;6.00;;;7.80;99.90;;;;;;5040567;28;20432;-64
2023/11/23 09:54:21;;;;;;;10.97;9.17;;;7.90;99.90;;;;;;5053130;28;20190;-64
2023/11/23 09:56:47;;;;;;;7.80;6.50;;;7.90;99.90;;;;;;5059917;28;20927;-65
2023/11/23 09:59:14;;;;;;;10.03;7.70;;;7.90;99.90;;;;;;5055950;28;20411;-65
2023/11/23 10:01:47;;;;;;;8.20;6.73;;;7.90;99.90;;;;;;5049790;28;21003;-64
2023/11/23 10:04:13;;;;;;;9.80;8.13;;;7.90;99.90;;;;;;5052600;28;20441;-65
2023/11/23 10:06:40;;;;;;;9.90;6.90;;;7.90;99.90;;;;;;5056315;28;20918;-64
2023/11/23 10:09:07;;;;;;;11.90;8.27;;;7.90;99.90;;;;;;5057770;28;20176;-64
2023/11/23 10:11:33;;;;;;;7.87;7.07;;;7.90;99.90;;;;;;5054801;28;20421;-66
2023/11/23 10:13:58;;;;;;;20.13;13.20;;;8.00;99.90;;;;;;5052417;28;20440;-63
2023/11/23 10:16:24;;;;;;;10.53;8.13;;;8.00;99.90;;;;;;5053618;28;20211;-63
2023/11/23 10:18:49;;;;;;;10.27;7.50;;;8.10;99.90;;;;;;5049514;28;20691;-63
2023/11/23 10:21:15;;;;;;;8.73;6.97;;;8.10;99.90;;;;;;5052870;28;20183;-64
2023/11/23 10:23:43;;;;;;;8.43;7.50;;;8.10;99.90;;;;;;5055292;28;20555;-64
2023/11/23 10:26:09;;;;;;;8.23;6.90;;;8.00;99.90;;;;;;5053487;28;20221;-63
2023/11/23 10:28:38;;;;;;;9.30;7.67;;;8.00;99.90;;;;;;5053698;28;20457;-63
2023/11/23 10:31:04;;;;;;;12.37;7.97;;;8.00;99.90;;;;;;5047008;28;20408;-64
2023/11/23 10:33:33;;;;;;;7.27;6.07;;;8.00;99.90;;;;;;5054287;28;20434;-63
2023/11/23 10:36:05;;;;;;;10.30;7.10;;;8.00;99.90;;;;;;5052442;28;20410;-62
2023/11/23 10:38:41;;;;;;;7.00;6.20;;;8.00;99.90;;;;;;5053145;28;20430;-64
2023/11/23 10:41:08;;;;;;;8.47;7.43;;;8.00;99.90;;;;;;5053218;28;20415;-63
2023/11/23 10:43:37;;;;;;;9.83;7.20;;;8.00;99.90;;;;;;5053379;28;20439;-63
2023/11/23 10:46:14;;;;;;;9.53;6.73;;;8.00;99.90;;;;;;5045835;28;20922;-63
2023/11/23 10:48:44;;;;;;;8.67;6.50;;;8.10;99.90;;;;;;5052328;28;21016;-63
2023/11/23 10:51:11;;;;;;;8.93;6.53;;;8.10;99.90;;;;;;5053842;28;20566;-63
2023/11/23 10:53:40;;;;;;;11.07;6.87;;;8.00;99.90;;;;;;5054117;28;20784;-63
2023/11/23 10:56:13;;;;;;;10.43;7.00;;;8.10;99.90;;;;;;5045835;28;20427;-63
2023/11/23 10:58:40;;;;;;;7.50;6.63;;;8.10;99.90;;;;;;5051369;28;20422;-62
2023/11/23 11:01:10;;;;;;;7.60;6.20;;;8.10;99.90;;;;;;5051876;28;20422;-64
2023/11/23 11:03:38;;;;;;;8.23;6.83;;;8.10;99.90;;;;;;5052729;28;20476;-64
2023/11/23 11:06:15;;;;;;;9.63;7.07;;;8.20;99.90;;;;;;5045595;28;20437;-63
2023/11/23 11:08:47;;;;;;;8.03;7.23;;;8.20;99.90;;;;;;5050127;28;20598;-64
2023/11/23 11:11:26;;;;;;;9.13;6.73;;;8.20;99.90;;;;;;5053499;28;20421;-64
2023/11/23 11:14:02;;;;;;;10.93;7.60;;;8.20;99.90;;;;;;5052921;28;20573;-64
2023/11/23 11:16:35;;;;;;;10.90;8.57;;;8.30;99.90;;;;;;5052326;28;20419;-64
2023/11/23 11:19:11;;;;;;;9.47;7.53;;;8.30;99.90;;;;;;5059461;28;20413;-65
2023/11/23 11:21:44;;;;;;;10.87;7.17;;;8.30;99.90;;;;;;5053383;28;20842;-63
2023/11/23 11:24:21;;;;;;;10.40;7.80;;;8.40;99.90;;;;;;5047758;28;20968;-65
2023/11/23 11:26:47;;;;;;;9.30;6.90;;;8.30;99.90;;;;;;5050506;28;20417;-63
2023/11/23 11:29:13;;;;;;;7.37;6.67;;;8.40;99.90;;;;;;5053340;28;20502;-63
2023/11/23 11:31:43;;;;;;;13.70;8.47;;;8.40;99.90;;;;;;5055216;28;20413;-63
2023/11/23 11:34:14;;;;;;;7.20;6.50;;;8.40;99.90;;;;;;5045022;28;20425;-63
2023/11/23 11:36:40;;;;;;;9.70;6.50;;;8.40;99.90;;;;;;5053378;28;20451;-65
2023/11/23 11:39:07;;;;;;;9.53;7.10;;;8.40;99.90;;;;;;5053577;28;20459;-63
2023/11/23 11:41:36;;;;;;;8.63;6.73;;;8.40;99.90;;;;;;5054302;28;20907;-62
2023/11/23 11:44:04;;;;;;;9.70;8.10;;;8.50;99.90;;;;;;5062160;28;20481;-65
2023/11/23 11:46:30;;;;;;;8.87;7.23;;;8.50;99.90;;;;;;5051390;28;20795;-63
2023/11/23 11:48:59;;;;;;;10.20;7.70;;;8.50;99.90;;;;;;5055042;28;20510;-63
2023/11/23 11:51:25;;;;;;;8.17;7.30;;;8.60;99.90;;;;;;5053121;28;20443;-64
2023/11/23 11:53:53;;;;;;;8.80;6.73;;;8.70;99.90;;;;;;5060745;28;21277;-64
2023/11/23 11:56:19;;;;;;;8.40;6.53;;;8.70;99.90;;;;;;5053820;28;20428;-64
2023/11/23 11:58:47;;;;;;;7.90;6.20;;;8.80;99.90;;;;;;5065962;28;20447;-64
2023/11/23 12:01:13;;;;;;;8.97;6.60;;;8.80;99.90;;;;;;5055446;28;20429;-64
2023/11/23 12:03:39;;;;;;;6.90;6.30;;;8.90;99.90;;;;;;5054601;28;20507;-64
2023/11/23 12:06:05;;;;;;;7.63;6.87;;;8.90;99.90;;;;;;5052835;28;20439;-64
2023/11/23 12:08:37;;;;;;;6.77;5.83;;;9.00;99.90;;;;;;5053087;28;20237;-64
2023/11/23 12:11:05;;;;;;;8.13;6.13;;;9.00;99.90;;;;;;5051738;28;20843;-64
2023/11/23 12:13:34;;;;;;;6.77;6.07;;;9.00;99.90;;;;;;5054079;28;20432;-64
2023/11/23 12:16:00;;;;;;;6.37;5.77;;;9.10;99.90;;;;;;5052886;28;20418;-64
2023/11/23 12:18:32;;;;;;;6.53;5.93;;;9.20;99.90;;;;;;5053335;28;20431;-64
2023/11/23 12:20:58;;;;;;;7.50;5.30;;;9.30;99.90;;;;;;5066487;28;20424;-64
2023/11/23 12:23:24;;;;;;;6.03;5.50;;;9.40;99.90;;;;;;5053503;28;20513;-63
2023/11/23 12:25:53;;;;;;;6.50;5.73;;;9.40;99.90;;;;;;5052068;28;20440;-63
2023/11/23 12:28:20;;;;;;;10.63;6.00;;;9.50;99.90;;;;;;5058729;28;20206;-63
2023/11/23 12:30:46;;;;;;;5.80;5.30;;;9.50;99.90;;;;;;5054854;28;20429;-63
2023/11/23 12:33:12;;;;;;;8.20;5.90;;;9.50;99.90;;;;;;5057803;28;20456;-64
2023/11/23 12:35:43;;;;;;;13.43;5.90;;;9.50;99.90;;;;;;5070823;28;20501;-64
2023/11/23 12:38:09;;;;;;;7.07;5.30;;;9.60;99.90;;;;;;5051239;28;20432;-64
2023/11/23 12:40:34;;;;;;;6.63;5.70;;;9.50;99.90;;;;;;5059220;28;20996;-63
2023/11/23 12:43:00;;;;;;;7.37;4.67;;;9.60;99.90;;;;;;5056649;28;20269;-63
2023/11/23 12:45:26;;;;;;;5.67;5.00;;;9.60;99.90;;;;;;5056135;28;20609;-65
2023/11/23 12:47:53;;;;;;;6.43;5.60;;;9.70;99.90;;;;;;5058120;28;20198;-63
2023/11/23 12:50:21;;;;;;;6.03;5.03;;;9.70;99.90;;;;;;5055301;28;20973;-64